sensor_id;sensor_type;location;lat;lon;timestamp;P1;durP1;ratioP1;P2;durP2;ratioP2
19414;SDS011;9843;48.882;12.592;2022-07-25T00:01:46;15.83;;;14.13;;
19414;SDS011;9843;48.882;12.592;2022-07-25T00:04:13;15.33;;;13.73;;
19414;SDS011;9843;48.882;12.592;2022-07-25T00:06:40;13.30;;;11.53;;
19414;SDS011;9843;48.882;12.592;2022-07-25T00:09:08;14.60;;;12.47;;
19414;SDS011;9843;48.882;12.592;2022-07-25T00:11:35;17.13;;;13.37;;
19414;SDS011;9843;48.882;12.592;2022-07-25T00:14:03;14.87;;;13.50;;
19414;SDS011;9843;48.882;12.592;2022-07-25T00:16:30;16.07;;;12.47;;
19414;SDS011;9843;48.882;12.592;2022-07-25T00:18:57;14.97;;;13.40;;
19414;SDS011;9843;48.882;12.592;2022-07-25T00:21:24;16.07;;;12.23;;
19414;SDS011;9843;48.882;12.592;2022-07-25T00:23:51;16.20;;;13.73;;
19414;SDS011;9843;48.882;12.592;2022-07-25T00:26:18;16.97;;;13.07;;
19414;SDS011;9843;48.882;12.592;2022-07-25T00:28:45;24.63;;;15.33;;
19414;SDS011;9843;48.882;12.592;2022-07-25T00:31:13;18.63;;;16.13;;
19414;SDS011;9843;48.882;12.592;2022-07-25T00:33:39;13.37;;;11.47;;
19414;SDS011;9843;48.882;12.592;2022-07-25T00:36:06;15.60;;;14.10;;
19414;SDS011;9843;48.882;12.592;2022-07-25T00:38:33;15.03;;;13.47;;
19414;SDS011;9843;48.882;12.592;2022-07-25T00:41:01;12.03;;;10.83;;
19414;SDS011;9843;48.882;12.592;2022-07-25T00:43:28;17.43;;;14.10;;
19414;SDS011;9843;48.882;12.592;2022-07-25T00:45:55;15.23;;;12.87;;
19414;SDS011;9843;48.882;12.592;2022-07-25T00:48:23;13.83;;;12.53;;
19414;SDS011;9843;48.882;12.592;2022-07-25T00:50:50;13.77;;;11.27;;
19414;SDS011;9843;48.882;12.592;2022-07-25T00:53:17;12.93;;;11.60;;
19414;SDS011;9843;48.882;12.592;2022-07-25T00:55:44;12.37;;;11.23;;
19414;SDS011;9843;48.882;12.592;2022-07-25T00:58:12;13.30;;;11.63;;
19414;SDS011;9843;48.882;12.592;2022-07-25T01:00:38;16.37;;;14.37;;
19414;SDS011;9843;48.882;12.592;2022-07-25T01:03:05;13.20;;;11.87;;
19414;SDS011;9843;48.882;12.592;2022-07-25T01:05:33;16.67;;;14.63;;
19414;SDS011;9843;48.882;12.592;2022-07-25T01:08:00;16.93;;;14.63;;
19414;SDS011;9843;48.882;12.592;2022-07-25T01:10:28;15.30;;;12.77;;
19414;SDS011;9843;48.882;12.592;2022-07-25T01:12:55;16.33;;;13.53;;
19414;SDS011;9843;48.882;12.592;2022-07-25T01:15:22;14.10;;;12.70;;
19414;SDS011;9843;48.882;12.592;2022-07-25T01:17:50;14.50;;;12.93;;
19414;SDS011;9843;48.882;12.592;2022-07-25T01:20:18;16.57;;;15.00;;
19414;SDS011;9843;48.882;12.592;2022-07-25T01:22:45;14.03;;;12.63;;
19414;SDS011;9843;48.882;12.592;2022-07-25T01:25:13;15.80;;;13.13;;
19414;SDS011;9843;48.882;12.592;2022-07-25T01:27:41;14.93;;;13.37;;
19414;SDS011;9843;48.882;12.592;2022-07-25T01:30:09;16.57;;;13.77;;
19414;SDS011;9843;48.882;12.592;2022-07-25T01:32:38;17.80;;;13.57;;
19414;SDS011;9843;48.882;12.592;2022-07-25T01:35:06;14.03;;;12.60;;
19414;SDS011;9843;48.882;12.592;2022-07-25T01:37:35;14.80;;;12.77;;
19414;SDS011;9843;48.882;12.592;2022-07-25T01:40:02;18.37;;;15.07;;
19414;SDS011;9843;48.882;12.592;2022-07-25T01:42:31;15.20;;;12.60;;
19414;SDS011;9843;48.882;12.592;2022-07-25T01:44:58;18.47;;;15.67;;
19414;SDS011;9843;48.882;12.592;2022-07-25T01:47:25;16.57;;;14.87;;
19414;SDS011;9843;48.882;12.592;2022-07-25T01:49:52;16.43;;;14.20;;
19414;SDS011;9843;48.882;12.592;2022-07-25T01:52:18;17.97;;;14.23;;
19414;SDS011;9843;48.882;12.592;2022-07-25T01:54:47;12.77;;;11.47;;
19414;SDS011;9843;48.882;12.592;2022-07-25T01:57:14;13.40;;;12.20;;
19414;SDS011;9843;48.882;12.592;2022-07-25T01:59:40;13.13;;;11.80;;
19414;SDS011;9843;48.882;12.592;2022-07-25T02:02:07;13.97;;;12.57;;
19414;SDS011;9843;48.882;12.592;2022-07-25T02:04:35;14.33;;;12.77;;
19414;SDS011;9843;48.882;12.592;2022-07-25T02:07:02;15.30;;;12.13;;
19414;SDS011;9843;48.882;12.592;2022-07-25T02:09:29;13.80;;;12.47;;
19414;SDS011;9843;48.882;12.592;2022-07-25T02:11:57;13.47;;;11.20;;
19414;SDS011;9843;48.882;12.592;2022-07-25T02:14:24;12.30;;;11.10;;
19414;SDS011;9843;48.882;12.592;2022-07-25T02:16:51;15.43;;;13.10;;
19414;SDS011;9843;48.882;12.592;2022-07-25T02:19:18;14.63;;;13.23;;
19414;SDS011;9843;48.882;12.592;2022-07-25T02:21:45;14.47;;;13.07;;
19414;SDS011;9843;48.882;12.592;2022-07-25T02:24:12;13.43;;;12.00;;
19414;SDS011;9843;48.882;12.592;2022-07-25T02:26:38;15.13;;;12.33;;
19414;SDS011;9843;48.882;12.592;2022-07-25T02:29:06;12.83;;;11.63;;
19414;SDS011;9843;48.882;12.592;2022-07-25T02:31:33;13.80;;;11.73;;
19414;SDS011;9843;48.882;12.592;2022-07-25T02:34:00;13.70;;;11.27;;
19414;SDS011;9843;48.882;12.592;2022-07-25T02:36:27;14.03;;;12.63;;
19414;SDS011;9843;48.882;12.592;2022-07-25T02:38:53;13.97;;;12.63;;
19414;SDS011;9843;48.882;12.592;2022-07-25T02:41:20;14.90;;;13.17;;
19414;SDS011;9843;48.882;12.592;2022-07-25T02:43:47;13.27;;;11.97;;
19414;SDS011;9843;48.882;12.592;2022-07-25T02:46:15;14.33;;;12.27;;
19414;SDS011;9843;48.882;12.592;2022-07-25T02:48:41;13.43;;;12.20;;
19414;SDS011;9843;48.882;12.592;2022-07-25T02:51:08;13.53;;;12.20;;
19414;SDS011;9843;48.882;12.592;2022-07-25T02:53:36;12.00;;;10.70;;
19414;SDS011;9843;48.882;12.592;2022-07-25T02:56:03;14.37;;;12.13;;
19414;SDS011;9843;48.882;12.592;2022-07-25T02:58:30;13.03;;;11.73;;
19414;SDS011;9843;48.882;12.592;2022-07-25T03:00:57;13.30;;;11.40;;
19414;SDS011;9843;48.882;12.592;2022-07-25T03:03:25;13.50;;;12.13;;
19414;SDS011;9843;48.882;12.592;2022-07-25T03:05:51;13.20;;;11.87;;
19414;SDS011;9843;48.882;12.592;2022-07-25T03:08:18;14.80;;;13.40;;
19414;SDS011;9843;48.882;12.592;2022-07-25T03:10:45;14.20;;;12.80;;
19414;SDS011;9843;48.882;12.592;2022-07-25T03:13:11;24.83;;;14.03;;
19414;SDS011;9843;48.882;12.592;2022-07-25T03:15:38;14.60;;;13.20;;
19414;SDS011;9843;48.882;12.592;2022-07-25T03:18:05;12.27;;;11.07;;
19414;SDS011;9843;48.882;12.592;2022-07-25T03:20:33;15.17;;;13.70;;
19414;SDS011;9843;48.882;12.592;2022-07-25T03:23:00;11.80;;;10.70;;
19414;SDS011;9843;48.882;12.592;2022-07-25T03:25:26;14.90;;;13.30;;
19414;SDS011;9843;48.882;12.592;2022-07-25T03:27:53;16.87;;;14.37;;
19414;SDS011;9843;48.882;12.592;2022-07-25T03:30:20;14.63;;;13.07;;
19414;SDS011;9843;48.882;12.592;2022-07-25T03:32:47;14.30;;;12.30;;
19414;SDS011;9843;48.882;12.592;2022-07-25T03:35:14;15.63;;;13.33;;
19414;SDS011;9843;48.882;12.592;2022-07-25T03:37:42;13.30;;;12.00;;
19414;SDS011;9843;48.882;12.592;2022-07-25T03:40:10;17.40;;;13.63;;
19414;SDS011;9843;48.882;12.592;2022-07-25T03:42:37;13.20;;;12.00;;
19414;SDS011;9843;48.882;12.592;2022-07-25T03:45:04;16.73;;;12.70;;
19414;SDS011;9843;48.882;12.592;2022-07-25T03:47:31;16.17;;;12.13;;
19414;SDS011;9843;48.882;12.592;2022-07-25T03:49:58;16.50;;;14.70;;
19414;SDS011;9843;48.882;12.592;2022-07-25T03:52:25;16.87;;;13.93;;
19414;SDS011;9843;48.882;12.592;2022-07-25T03:54:53;15.20;;;13.60;;
19414;SDS011;9843;48.882;12.592;2022-07-25T03:57:19;16.17;;;13.47;;
19414;SDS011;9843;48.882;12.592;2022-07-25T03:59:46;14.47;;;13.00;;
19414;SDS011;9843;48.882;12.592;2022-07-25T04:02:13;14.73;;;13.17;;
19414;SDS011;9843;48.882;12.592;2022-07-25T04:04:40;15.30;;;13.80;;
19414;SDS011;9843;48.882;12.592;2022-07-25T04:07:06;14.17;;;12.73;;
19414;SDS011;9843;48.882;12.592;2022-07-25T04:09:33;14.03;;;12.80;;
19414;SDS011;9843;48.882;12.592;2022-07-25T04:12:01;15.10;;;12.40;;
19414;SDS011;9843;48.882;12.592;2022-07-25T04:14:28;13.87;;;12.53;;
19414;SDS011;9843;48.882;12.592;2022-07-25T04:16:55;14.43;;;12.97;;
19414;SDS011;9843;48.882;12.592;2022-07-25T04:19:21;14.37;;;13.00;;
19414;SDS011;9843;48.882;12.592;2022-07-25T04:21:48;14.30;;;12.90;;
19414;SDS011;9843;48.882;12.592;2022-07-25T04:24:15;14.00;;;12.60;;
19414;SDS011;9843;48.882;12.592;2022-07-25T04:26:41;16.97;;;12.97;;
19414;SDS011;9843;48.882;12.592;2022-07-25T04:29:09;12.60;;;11.43;;
19414;SDS011;9843;48.882;12.592;2022-07-25T04:31:36;12.87;;;11.17;;
19414;SDS011;9843;48.882;12.592;2022-07-25T04:34:03;14.13;;;12.70;;
19414;SDS011;9843;48.882;12.592;2022-07-25T04:36:29;12.90;;;11.70;;
19414;SDS011;9843;48.882;12.592;2022-07-25T04:38:56;12.63;;;11.30;;
19414;SDS011;9843;48.882;12.592;2022-07-25T04:41:23;11.83;;;10.83;;
19414;SDS011;9843;48.882;12.592;2022-07-25T04:43:50;12.40;;;11.20;;
19414;SDS011;9843;48.882;12.592;2022-07-25T04:46:18;10.40;;;9.43;;
19414;SDS011;9843;48.882;12.592;2022-07-25T04:48:45;13.17;;;11.83;;
19414;SDS011;9843;48.882;12.592;2022-07-25T04:51:12;13.27;;;11.90;;
19414;SDS011;9843;48.882;12.592;2022-07-25T04:53:39;17.97;;;13.13;;
19414;SDS011;9843;48.882;12.592;2022-07-25T04:56:06;14.53;;;10.67;;
19414;SDS011;9843;48.882;12.592;2022-07-25T04:58:33;12.50;;;10.83;;
19414;SDS011;9843;48.882;12.592;2022-07-25T05:01:00;13.80;;;12.40;;
19414;SDS011;9843;48.882;12.592;2022-07-25T05:03:28;13.73;;;12.37;;
19414;SDS011;9843;48.882;12.592;2022-07-25T05:05:54;13.40;;;12.13;;
19414;SDS011;9843;48.882;12.592;2022-07-25T05:08:22;16.67;;;13.67;;
19414;SDS011;9843;48.882;12.592;2022-07-25T05:10:48;19.23;;;13.60;;
19414;SDS011;9843;48.882;12.592;2022-07-25T05:13:15;13.20;;;11.90;;
19414;SDS011;9843;48.882;12.592;2022-07-25T05:15:42;14.87;;;13.20;;
19414;SDS011;9843;48.882;12.592;2022-07-25T05:18:08;14.13;;;12.13;;
19414;SDS011;9843;48.882;12.592;2022-07-25T05:20:36;14.83;;;13.33;;
19414;SDS011;9843;48.882;12.592;2022-07-25T05:23:03;12.43;;;11.20;;
19414;SDS011;9843;48.882;12.592;2022-07-25T05:25:30;12.87;;;11.47;;
19414;SDS011;9843;48.882;12.592;2022-07-25T05:27:57;12.40;;;11.27;;
19414;SDS011;9843;48.882;12.592;2022-07-25T05:30:24;11.33;;;10.23;;
19414;SDS011;9843;48.882;12.592;2022-07-25T05:32:56;16.97;;;12.57;;
19414;SDS011;9843;48.882;12.592;2022-07-25T05:35:23;15.90;;;11.47;;
19414;SDS011;9843;48.882;12.592;2022-07-25T05:37:52;13.63;;;11.53;;
19414;SDS011;9843;48.882;12.592;2022-07-25T05:40:19;17.70;;;14.53;;
19414;SDS011;9843;48.882;12.592;2022-07-25T05:42:46;15.47;;;12.57;;
19414;SDS011;9843;48.882;12.592;2022-07-25T05:45:12;13.73;;;12.47;;
19414;SDS011;9843;48.882;12.592;2022-07-25T05:47:39;15.17;;;13.23;;
19414;SDS011;9843;48.882;12.592;2022-07-25T05:50:06;12.77;;;11.47;;
19414;SDS011;9843;48.882;12.592;2022-07-25T05:52:34;19.37;;;12.60;;
19414;SDS011;9843;48.882;12.592;2022-07-25T05:55:02;16.77;;;11.83;;
19414;SDS011;9843;48.882;12.592;2022-07-25T05:57:29;15.03;;;11.03;;
19414;SDS011;9843;48.882;12.592;2022-07-25T05:59:56;11.07;;;9.40;;
19414;SDS011;9843;48.882;12.592;2022-07-25T06:02:22;20.00;;;10.60;;
19414;SDS011;9843;48.882;12.592;2022-07-25T06:04:49;10.80;;;8.60;;
19414;SDS011;9843;48.882;12.592;2022-07-25T06:07:16;12.73;;;10.53;;
19414;SDS011;9843;48.882;12.592;2022-07-25T06:09:43;9.87;;;8.87;;
19414;SDS011;9843;48.882;12.592;2022-07-25T06:12:11;14.20;;;11.17;;
19414;SDS011;9843;48.882;12.592;2022-07-25T06:14:38;16.97;;;9.80;;
19414;SDS011;9843;48.882;12.592;2022-07-25T06:17:04;9.33;;;8.37;;
19414;SDS011;9843;48.882;12.592;2022-07-25T06:19:31;9.63;;;8.77;;
19414;SDS011;9843;48.882;12.592;2022-07-25T06:21:58;12.90;;;8.33;;
19414;SDS011;9843;48.882;12.592;2022-07-25T06:24:24;13.63;;;10.30;;
19414;SDS011;9843;48.882;12.592;2022-07-25T06:26:51;11.07;;;9.93;;
19414;SDS011;9843;48.882;12.592;2022-07-25T06:29:19;11.67;;;10.20;;
19414;SDS011;9843;48.882;12.592;2022-07-25T06:31:46;11.33;;;9.37;;
19414;SDS011;9843;48.882;12.592;2022-07-25T06:34:13;9.47;;;8.53;;
19414;SDS011;9843;48.882;12.592;2022-07-25T06:36:39;8.53;;;7.73;;
19414;SDS011;9843;48.882;12.592;2022-07-25T06:39:06;12.03;;;8.90;;
19414;SDS011;9843;48.882;12.592;2022-07-25T06:41:33;12.10;;;8.40;;
19414;SDS011;9843;48.882;12.592;2022-07-25T06:44:00;12.52;;;9.70;;
19414;SDS011;9843;48.882;12.592;2022-07-25T06:46:28;9.70;;;8.18;;
19414;SDS011;9843;48.882;12.592;2022-07-25T06:48:56;9.25;;;8.35;;
19414;SDS011;9843;48.882;12.592;2022-07-25T06:51:23;11.18;;;8.77;;
19414;SDS011;9843;48.882;12.592;2022-07-25T06:53:50;8.77;;;7.95;;
19414;SDS011;9843;48.882;12.592;2022-07-25T06:56:17;8.93;;;7.85;;
19414;SDS011;9843;48.882;12.592;2022-07-25T06:58:44;8.02;;;6.72;;
19414;SDS011;9843;48.882;12.592;2022-07-25T07:01:10;8.20;;;5.47;;
19414;SDS011;9843;48.882;12.592;2022-07-25T07:03:39;7.93;;;7.13;;
19414;SDS011;9843;48.882;12.592;2022-07-25T07:06:06;11.02;;;7.50;;
19414;SDS011;9843;48.882;12.592;2022-07-25T07:08:34;6.18;;;5.55;;
19414;SDS011;9843;48.882;12.592;2022-07-25T07:11:01;11.98;;;5.93;;
19414;SDS011;9843;48.882;12.592;2022-07-25T07:13:28;7.72;;;7.03;;
19414;SDS011;9843;48.882;12.592;2022-07-25T07:15:54;10.60;;;6.95;;
19414;SDS011;9843;48.882;12.592;2022-07-25T07:18:21;10.18;;;6.60;;
19414;SDS011;9843;48.882;12.592;2022-07-25T07:20:49;5.40;;;5.00;;
19414;SDS011;9843;48.882;12.592;2022-07-25T07:23:17;8.02;;;5.80;;
19414;SDS011;9843;48.882;12.592;2022-07-25T07:25:44;8.93;;;6.65;;
19414;SDS011;9843;48.882;12.592;2022-07-25T07:28:11;6.95;;;5.88;;
19414;SDS011;9843;48.882;12.592;2022-07-25T07:30:38;7.00;;;5.25;;
19414;SDS011;9843;48.882;12.592;2022-07-25T07:33:04;6.53;;;5.70;;
19414;SDS011;9843;48.882;12.592;2022-07-25T07:35:31;10.07;;;6.38;;
19414;SDS011;9843;48.882;12.592;2022-07-25T07:37:59;9.20;;;6.10;;
19414;SDS011;9843;48.882;12.592;2022-07-25T07:40:26;8.98;;;6.47;;
19414;SDS011;9843;48.882;12.592;2022-07-25T07:42:53;7.85;;;5.60;;
19414;SDS011;9843;48.882;12.592;2022-07-25T07:45:21;7.05;;;5.30;;
19414;SDS011;9843;48.882;12.592;2022-07-25T07:47:50;7.15;;;5.90;;
19414;SDS011;9843;48.882;12.592;2022-07-25T07:50:19;8.35;;;5.35;;
19414;SDS011;9843;48.882;12.592;2022-07-25T07:52:49;10.40;;;4.45;;
19414;SDS011;9843;48.882;12.592;2022-07-25T07:55:20;8.13;;;5.22;;
19414;SDS011;9843;48.882;12.592;2022-07-25T07:58:04;9.52;;;6.20;;
19414;SDS011;9843;48.882;12.592;2022-07-25T08:00:32;5.97;;;4.60;;
19414;SDS011;9843;48.882;12.592;2022-07-25T08:03:00;12.38;;;5.82;;
19414;SDS011;9843;48.882;12.592;2022-07-25T08:05:29;7.22;;;4.70;;
19414;SDS011;9843;48.882;12.592;2022-07-25T08:07:57;7.95;;;5.93;;
19414;SDS011;9843;48.882;12.592;2022-07-25T08:10:27;5.60;;;5.10;;
19414;SDS011;9843;48.882;12.592;2022-07-25T08:12:56;5.55;;;5.05;;
19414;SDS011;9843;48.882;12.592;2022-07-25T08:15:23;6.25;;;4.90;;
19414;SDS011;9843;48.882;12.592;2022-07-25T08:17:51;5.95;;;5.35;;
19414;SDS011;9843;48.882;12.592;2022-07-25T08:20:18;6.35;;;5.82;;
19414;SDS011;9843;48.882;12.592;2022-07-25T08:22:47;5.90;;;4.97;;
19414;SDS011;9843;48.882;12.592;2022-07-25T08:25:16;7.82;;;5.10;;
19414;SDS011;9843;48.882;12.592;2022-07-25T08:27:45;8.02;;;5.75;;
19414;SDS011;9843;48.882;12.592;2022-07-25T08:30:13;7.35;;;5.38;;
19414;SDS011;9843;48.882;12.592;2022-07-25T08:32:48;6.53;;;5.05;;
19414;SDS011;9843;48.882;12.592;2022-07-25T08:35:16;7.65;;;6.72;;
19414;SDS011;9843;48.882;12.592;2022-07-25T08:37:44;5.85;;;5.22;;
19414;SDS011;9843;48.882;12.592;2022-07-25T08:40:11;7.90;;;5.75;;
19414;SDS011;9843;48.882;12.592;2022-07-25T08:42:39;5.82;;;5.28;;
19414;SDS011;9843;48.882;12.592;2022-07-25T08:45:08;7.03;;;4.68;;
19414;SDS011;9843;48.882;12.592;2022-07-25T08:47:38;5.43;;;4.80;;
19414;SDS011;9843;48.882;12.592;2022-07-25T08:50:06;5.88;;;5.15;;
19414;SDS011;9843;48.882;12.592;2022-07-25T08:52:35;6.35;;;5.40;;
19414;SDS011;9843;48.882;12.592;2022-07-25T08:55:02;6.93;;;5.88;;
19414;SDS011;9843;48.882;12.592;2022-07-25T08:57:30;8.00;;;5.80;;
19414;SDS011;9843;48.882;12.592;2022-07-25T08:59:57;19.67;;;5.95;;
19414;SDS011;9843;48.882;12.592;2022-07-25T09:02:25;8.85;;;5.55;;
19414;SDS011;9843;48.882;12.592;2022-07-25T09:04:53;6.18;;;5.32;;
19414;SDS011;9843;48.882;12.592;2022-07-25T09:07:29;5.78;;;5.18;;
19414;SDS011;9843;48.882;12.592;2022-07-25T09:09:57;10.25;;;5.15;;
19414;SDS011;9843;48.882;12.592;2022-07-25T09:12:24;6.20;;;5.60;;
19414;SDS011;9843;48.882;12.592;2022-07-25T09:14:52;8.80;;;5.22;;
19414;SDS011;9843;48.882;12.592;2022-07-25T09:17:19;5.65;;;4.93;;
19414;SDS011;9843;48.882;12.592;2022-07-25T09:19:51;8.07;;;5.60;;
19414;SDS011;9843;48.882;12.592;2022-07-25T09:22:18;6.50;;;4.85;;
19414;SDS011;9843;48.882;12.592;2022-07-25T09:24:45;5.68;;;5.18;;
19414;SDS011;9843;48.882;12.592;2022-07-25T09:27:12;6.82;;;5.63;;
19414;SDS011;9843;48.882;12.592;2022-07-25T09:29:41;5.68;;;5.18;;
19414;SDS011;9843;48.882;12.592;2022-07-25T09:32:15;7.20;;;6.10;;
19414;SDS011;9843;48.882;12.592;2022-07-25T09:34:46;6.85;;;5.28;;
19414;SDS011;9843;48.882;12.592;2022-07-25T09:37:15;8.48;;;5.95;;
19414;SDS011;9843;48.882;12.592;2022-07-25T09:39:44;6.18;;;5.20;;
19414;SDS011;9843;48.882;12.592;2022-07-25T09:42:22;8.95;;;5.10;;
19414;SDS011;9843;48.882;12.592;2022-07-25T09:44:57;5.20;;;4.65;;
19414;SDS011;9843;48.882;12.592;2022-07-25T09:47:29;8.82;;;5.20;;
19414;SDS011;9843;48.882;12.592;2022-07-25T09:49:56;11.10;;;5.90;;
19414;SDS011;9843;48.882;12.592;2022-07-25T09:52:24;8.10;;;5.43;;
19414;SDS011;9843;48.882;12.592;2022-07-25T09:54:52;8.90;;;5.35;;
19414;SDS011;9843;48.882;12.592;2022-07-25T09:57:19;5.50;;;4.95;;
19414;SDS011;9843;48.882;12.592;2022-07-25T09:59:47;6.05;;;5.32;;
19414;SDS011;9843;48.882;12.592;2022-07-25T10:02:16;4.93;;;4.47;;
19414;SDS011;9843;48.882;12.592;2022-07-25T10:04:55;4.72;;;4.20;;
19414;SDS011;9843;48.882;12.592;2022-07-25T10:07:36;9.18;;;5.30;;
19414;SDS011;9843;48.882;12.592;2022-07-25T10:10:05;5.75;;;5.25;;
19414;SDS011;9843;48.882;12.592;2022-07-25T10:12:32;5.30;;;4.80;;
19414;SDS011;9843;48.882;12.592;2022-07-25T10:15:03;5.80;;;5.30;;
19414;SDS011;9843;48.882;12.592;2022-07-25T10:17:32;7.13;;;4.82;;
19414;SDS011;9843;48.882;12.592;2022-07-25T10:20:00;5.53;;;5.03;;
19414;SDS011;9843;48.882;12.592;2022-07-25T10:22:34;5.28;;;4.30;;
19414;SDS011;9843;48.882;12.592;2022-07-25T10:25:08;5.38;;;4.70;;
19414;SDS011;9843;48.882;12.592;2022-07-25T10:27:40;8.68;;;6.53;;
19414;SDS011;9843;48.882;12.592;2022-07-25T10:30:09;5.50;;;5.00;;
19414;SDS011;9843;48.882;12.592;2022-07-25T10:32:48;7.47;;;6.15;;
19414;SDS011;9843;48.882;12.592;2022-07-25T10:35:15;8.07;;;5.60;;
19414;SDS011;9843;48.882;12.592;2022-07-25T10:37:44;5.57;;;5.07;;
19414;SDS011;9843;48.882;12.592;2022-07-25T10:40:23;5.63;;;5.13;;
19414;SDS011;9843;48.882;12.592;2022-07-25T10:43:00;6.70;;;5.07;;
19414;SDS011;9843;48.882;12.592;2022-07-25T10:45:41;8.50;;;4.90;;
19414;SDS011;9843;48.882;12.592;2022-07-25T10:48:09;4.75;;;4.35;;
19414;SDS011;9843;48.882;12.592;2022-07-25T10:50:45;5.93;;;5.43;;
19414;SDS011;9843;48.882;12.592;2022-07-25T10:53:27;7.18;;;4.82;;
19414;SDS011;9843;48.882;12.592;2022-07-25T10:55:57;5.53;;;5.03;;
19414;SDS011;9843;48.882;12.592;2022-07-25T10:58:24;9.85;;;6.85;;
19414;SDS011;9843;48.882;12.592;2022-07-25T11:00:51;5.55;;;5.05;;
19414;SDS011;9843;48.882;12.592;2022-07-25T11:03:19;7.40;;;5.00;;
19414;SDS011;9843;48.882;12.592;2022-07-25T11:05:46;8.75;;;5.97;;
19414;SDS011;9843;48.882;12.592;2022-07-25T11:08:28;6.07;;;5.47;;
19414;SDS011;9843;48.882;12.592;2022-07-25T11:10:57;5.55;;;5.05;;
19414;SDS011;9843;48.882;12.592;2022-07-25T11:13:24;5.68;;;5.15;;
19414;SDS011;9843;48.882;12.592;2022-07-25T11:15:50;9.70;;;5.53;;
19414;SDS011;9843;48.882;12.592;2022-07-25T11:18:29;5.78;;;5.07;;
19414;SDS011;9843;48.882;12.592;2022-07-25T11:20:57;9.85;;;4.60;;
19414;SDS011;9843;48.882;12.592;2022-07-25T11:23:24;5.90;;;5.18;;
19414;SDS011;9843;48.882;12.592;2022-07-25T11:25:53;5.72;;;5.20;;
19414;SDS011;9843;48.882;12.592;2022-07-25T11:28:35;5.70;;;5.20;;
19414;SDS011;9843;48.882;12.592;2022-07-25T11:31:06;4.25;;;3.95;;
19414;SDS011;9843;48.882;12.592;2022-07-25T11:33:33;6.13;;;4.47;;
19414;SDS011;9843;48.882;12.592;2022-07-25T11:36:00;7.57;;;4.63;;
19414;SDS011;9843;48.882;12.592;2022-07-25T11:38:28;6.47;;;4.47;;
19414;SDS011;9843;48.882;12.592;2022-07-25T11:40:56;5.25;;;4.75;;
19414;SDS011;9843;48.882;12.592;2022-07-25T11:43:23;6.00;;;5.45;;
19414;SDS011;9843;48.882;12.592;2022-07-25T11:46:00;5.85;;;5.00;;
19414;SDS011;9843;48.882;12.592;2022-07-25T11:48:34;6.40;;;5.43;;
19414;SDS011;9843;48.882;12.592;2022-07-25T11:51:07;4.90;;;4.45;;
19414;SDS011;9843;48.882;12.592;2022-07-25T11:53:44;6.03;;;5.43;;
19414;SDS011;9843;48.882;12.592;2022-07-25T11:56:16;5.18;;;4.65;;
19414;SDS011;9843;48.882;12.592;2022-07-25T11:58:48;5.07;;;4.35;;
19414;SDS011;9843;48.882;12.592;2022-07-25T12:01:23;4.60;;;4.20;;
19414;SDS011;9843;48.882;12.592;2022-07-25T12:03:50;8.38;;;4.85;;
19414;SDS011;9843;48.882;12.592;2022-07-25T12:06:17;7.05;;;4.75;;
19414;SDS011;9843;48.882;12.592;2022-07-25T12:08:44;8.40;;;4.28;;
19414;SDS011;9843;48.882;12.592;2022-07-25T12:11:19;6.50;;;4.57;;
19414;SDS011;9843;48.882;12.592;2022-07-25T12:13:48;5.97;;;4.65;;
19414;SDS011;9843;48.882;12.592;2022-07-25T12:16:15;5.38;;;4.22;;
19414;SDS011;9843;48.882;12.592;2022-07-25T12:18:42;6.80;;;5.25;;
19414;SDS011;9843;48.882;12.592;2022-07-25T12:21:09;7.88;;;5.65;;
19414;SDS011;9843;48.882;12.592;2022-07-25T12:23:36;7.68;;;4.93;;
19414;SDS011;9843;48.882;12.592;2022-07-25T12:26:06;4.72;;;4.22;;
19414;SDS011;9843;48.882;12.592;2022-07-25T12:28:35;4.97;;;4.57;;
19414;SDS011;9843;48.882;12.592;2022-07-25T12:31:02;8.48;;;5.05;;
19414;SDS011;9843;48.882;12.592;2022-07-25T12:33:29;6.63;;;5.72;;
19414;SDS011;9843;48.882;12.592;2022-07-25T12:35:57;10.98;;;5.47;;
19414;SDS011;9843;48.882;12.592;2022-07-25T12:38:24;8.98;;;6.25;;
19414;SDS011;9843;48.882;12.592;2022-07-25T12:40:51;6.47;;;5.85;;
19414;SDS011;9843;48.882;12.592;2022-07-25T12:43:18;6.53;;;5.22;;
19414;SDS011;9843;48.882;12.592;2022-07-25T12:45:46;6.88;;;5.40;;
19414;SDS011;9843;48.882;12.592;2022-07-25T12:48:13;5.38;;;4.88;;
19414;SDS011;9843;48.882;12.592;2022-07-25T12:50:40;9.93;;;5.93;;
19414;SDS011;9843;48.882;12.592;2022-07-25T12:53:07;7.65;;;6.75;;
19414;SDS011;9843;48.882;12.592;2022-07-25T12:55:34;9.25;;;5.78;;
19414;SDS011;9843;48.882;12.592;2022-07-25T12:58:02;6.13;;;5.53;;
19414;SDS011;9843;48.882;12.592;2022-07-25T13:00:29;6.63;;;5.93;;
19414;SDS011;9843;48.882;12.592;2022-07-25T13:02:57;8.27;;;5.85;;
19414;SDS011;9843;48.882;12.592;2022-07-25T13:05:23;7.43;;;6.65;;
19414;SDS011;9843;48.882;12.592;2022-07-25T13:07:50;6.40;;;5.80;;
19414;SDS011;9843;48.882;12.592;2022-07-25T13:10:17;7.13;;;5.53;;
19414;SDS011;9843;48.882;12.592;2022-07-25T13:12:46;7.13;;;5.50;;
19414;SDS011;9843;48.882;12.592;2022-07-25T13:15:12;6.60;;;5.97;;
19414;SDS011;9843;48.882;12.592;2022-07-25T13:17:42;9.75;;;6.47;;
19414;SDS011;9843;48.882;12.592;2022-07-25T13:20:10;12.95;;;8.27;;
19414;SDS011;9843;48.882;12.592;2022-07-25T13:22:37;6.88;;;4.40;;
19414;SDS011;9843;48.882;12.592;2022-07-25T13:25:04;6.15;;;5.10;;
19414;SDS011;9843;48.882;12.592;2022-07-25T13:27:31;5.18;;;4.68;;
19414;SDS011;9843;48.882;12.592;2022-07-25T13:29:58;8.32;;;4.82;;
19414;SDS011;9843;48.882;12.592;2022-07-25T13:32:25;5.95;;;5.40;;
19414;SDS011;9843;48.882;12.592;2022-07-25T13:34:52;7.13;;;4.75;;
19414;SDS011;9843;48.882;12.592;2022-07-25T13:37:20;5.78;;;5.22;;
19414;SDS011;9843;48.882;12.592;2022-07-25T13:39:47;9.35;;;4.35;;
19414;SDS011;9843;48.882;12.592;2022-07-25T13:42:14;6.63;;;6.03;;
19414;SDS011;9843;48.882;12.592;2022-07-25T13:44:40;6.50;;;5.93;;
19414;SDS011;9843;48.882;12.592;2022-07-25T13:47:07;6.28;;;5.53;;
19414;SDS011;9843;48.882;12.592;2022-07-25T13:49:34;7.50;;;5.60;;
19414;SDS011;9843;48.882;12.592;2022-07-25T13:52:02;5.82;;;4.72;;
19414;SDS011;9843;48.882;12.592;2022-07-25T13:54:30;5.57;;;5.07;;
19414;SDS011;9843;48.882;12.592;2022-07-25T13:56:57;8.05;;;4.88;;
19414;SDS011;9843;48.882;12.592;2022-07-25T13:59:24;6.68;;;4.97;;
19414;SDS011;9843;48.882;12.592;2022-07-25T14:01:50;6.45;;;4.88;;
19414;SDS011;9843;48.882;12.592;2022-07-25T14:04:17;7.60;;;6.90;;
19414;SDS011;9843;48.882;12.592;2022-07-25T14:06:44;6.70;;;5.90;;
19414;SDS011;9843;48.882;12.592;2022-07-25T14:09:15;6.45;;;5.35;;
19414;SDS011;9843;48.882;12.592;2022-07-25T14:11:44;6.45;;;4.75;;
19414;SDS011;9843;48.882;12.592;2022-07-25T14:14:10;8.40;;;6.68;;
19414;SDS011;9843;48.882;12.592;2022-07-25T14:16:37;7.10;;;5.20;;
19414;SDS011;9843;48.882;12.592;2022-07-25T14:19:04;8.90;;;6.32;;
19414;SDS011;9843;48.882;12.592;2022-07-25T14:21:31;5.70;;;4.95;;
19414;SDS011;9843;48.882;12.592;2022-07-25T14:23:58;4.53;;;4.13;;
19414;SDS011;9843;48.882;12.592;2022-07-25T14:26:24;5.70;;;4.65;;
19414;SDS011;9843;48.882;12.592;2022-07-25T14:28:54;7.60;;;4.50;;
19414;SDS011;9843;48.882;12.592;2022-07-25T14:31:21;5.38;;;4.10;;
19414;SDS011;9843;48.882;12.592;2022-07-25T14:33:48;5.88;;;5.28;;
19414;SDS011;9843;48.882;12.592;2022-07-25T14:36:14;4.00;;;3.70;;
19414;SDS011;9843;48.882;12.592;2022-07-25T14:38:41;5.50;;;5.00;;
19414;SDS011;9843;48.882;12.592;2022-07-25T14:41:11;5.15;;;4.65;;